createdAt,value
2019-03-23T07:48:21.735Z,85.29
2019-03-23T07:53:26.673Z,85.05
2019-03-23T07:58:31.721Z,85.49
2019-03-23T08:03:36.936Z,85.07
2019-03-23T08:08:41.761Z,85.24
2019-03-23T08:13:46.591Z,85.94
2019-03-23T08:18:51.311Z,85.57
2019-03-23T08:23:56.361Z,85.14
2019-03-23T08:29:03.213Z,85.67
2019-03-23T08:34:07.991Z,85.67
2019-03-23T08:39:12.760Z,85.91
2019-03-23T08:44:17.736Z,86.37
2019-03-23T08:49:22.580Z,85.98
2019-03-23T08:54:27.410Z,84.60
2019-03-23T08:59:32.562Z,84.61
2019-03-23T09:04:37.666Z,84.99
2019-03-23T09:09:42.917Z,84.96
2019-03-23T09:14:47.806Z,83.95
2019-03-23T09:19:52.762Z,81.21
2019-03-23T09:24:57.448Z,81.88
2019-03-23T09:30:02.216Z,80.82
2019-03-23T09:35:07.605Z,80.91
2019-03-23T09:40:12.501Z,81.17
2019-03-23T09:45:17.339Z,80.49
2019-03-23T09:50:22.126Z,80.78
2019-03-23T09:55:28.640Z,80.36
2019-03-23T10:00:34.484Z,79.84
2019-03-23T10:05:39.316Z,80.13
2019-03-23T10:10:44.186Z,75.41
2019-03-23T10:15:48.908Z,74.85
2019-03-23T10:20:53.821Z,75.29
2019-03-23T10:25:58.653Z,73.84
2019-03-23T10:31:03.953Z,73.84
2019-03-23T10:36:09.107Z,70.56
2019-03-23T10:41:13.956Z,68.02
2019-03-23T10:46:18.958Z,67.59
2019-03-23T10:51:23.754Z,69.60
2019-03-23T10:56:28.685Z,68.50
2019-03-23T11:01:34.655Z,69.38
2019-03-23T11:06:39.916Z,69.50
2019-03-23T11:11:44.992Z,71.49
2019-03-23T11:16:51.126Z,71.40
2019-03-23T11:21:55.839Z,70.88
2019-03-23T11:27:00.609Z,69.94
2019-03-23T11:32:05.462Z,70.85
2019-03-23T11:37:10.420Z,66.90
2019-03-23T11:42:15.606Z,65.12
2019-03-23T11:47:20.517Z,66.37
2019-03-23T11:52:25.611Z,67.90
2019-03-23T11:57:30.715Z,69.00
2019-03-23T12:02:36.451Z,66.78
2019-03-23T12:07:44.086Z,65.99
2019-03-23T12:12:48.981Z,66.45
2019-03-23T12:17:53.804Z,66.14
2019-03-23T12:22:58.641Z,66.58
2019-03-23T12:28:03.534Z,66.82
2019-03-23T12:33:08.926Z,67.81
2019-03-23T12:38:14.505Z,70.88
2019-03-23T12:43:19.665Z,69.53
2019-03-23T12:48:24.486Z,70.14
2019-03-23T12:53:29.381Z,72.78
2019-03-23T12:58:34.422Z,74.21
2019-03-23T13:03:39.301Z,75.42
2019-03-23T13:08:44.282Z,76.97
2019-03-23T13:13:49.017Z,76.55
2019-03-23T13:18:53.977Z,77.75
2019-03-23T13:23:58.957Z,78.97
2019-03-23T13:29:03.809Z,79.87
2019-03-23T13:34:09.111Z,79.73
2019-03-23T13:39:13.850Z,80.57
2019-03-23T13:44:23.095Z,80.18
2019-03-23T13:49:27.762Z,81.81
2019-03-23T13:54:32.574Z,81.77
2019-03-23T13:59:37.427Z,82.53
2019-03-23T14:04:42.833Z,82.20
2019-03-23T14:09:47.996Z,83.18
2019-03-23T14:14:52.860Z,82.83
2019-03-23T14:19:57.621Z,82.07
2019-03-23T14:25:02.704Z,83.27
2019-03-23T14:30:08.055Z,82.91
2019-03-23T14:35:12.881Z,83.27
2019-03-23T14:40:17.609Z,83.27
2019-03-23T14:45:22.586Z,83.24
2019-03-23T14:50:28.005Z,82.81
2019-03-23T14:55:33.129Z,83.14
2019-03-23T15:00:38.028Z,83.29
2019-03-23T15:05:42.866Z,84.38
2019-03-23T15:10:47.586Z,84.95
2019-03-23T15:15:52.550Z,85.68
2019-03-23T15:20:57.505Z,85.63
2019-03-23T15:26:03.368Z,86.67
2019-03-23T15:31:08.561Z,86.97
2019-03-23T15:36:13.291Z,87.10
2019-03-23T15:41:17.842Z,87.52
2019-03-23T15:46:22.375Z,87.85
2019-03-23T15:51:27.046Z,88.21
2019-03-23T15:56:32.696Z,88.84
2019-03-23T16:01:37.592Z,90.18
2019-03-23T16:06:45.351Z,90.81
2019-03-23T16:11:50.165Z,91.29
2019-03-23T16:16:56.365Z,92.13
2019-03-23T16:22:01.161Z,93.02
2019-03-23T16:27:05.946Z,93.84
2019-03-23T16:32:11.229Z,94.72
2019-03-23T16:37:16.468Z,95.51
2019-03-23T16:42:21.378Z,96.06
2019-03-23T16:47:26.146Z,96.49
2019-03-23T16:52:31.018Z,96.91
2019-03-23T16:57:35.827Z,97.40
2019-03-23T17:02:40.741Z,97.80
2019-03-23T17:07:45.583Z,98.17
2019-03-23T17:12:55.320Z,98.41
2019-03-23T17:17:57.021Z,98.55
2019-03-23T17:23:02.129Z,98.68
2019-03-23T17:28:06.810Z,98.77
2019-03-23T17:33:11.598Z,98.86
2019-03-23T17:38:16.289Z,98.87
2019-03-23T17:43:23.565Z,98.94
2019-03-23T17:48:28.356Z,99.03
2019-03-23T17:53:33.096Z,99.02
2019-03-23T17:58:38.133Z,99.09
2019-03-23T18:03:43.076Z,99.31
2019-03-23T18:08:48.016Z,99.54
2019-03-23T18:13:53.353Z,99.67
2019-03-23T18:18:58.336Z,99.75
2019-03-23T18:24:02.958Z,99.77
2019-03-23T18:29:08.036Z,99.79
2019-03-23T18:34:13.333Z,99.84
2019-03-23T18:39:18.536Z,99.87
2019-03-23T18:44:23.535Z,99.96
2019-03-23T18:49:28.435Z,100.00
2019-03-23T18:54:33.796Z,100.00
2019-03-23T18:59:38.937Z,100.00
2019-03-23T19:04:43.857Z,100.00
2019-03-23T19:09:49.650Z,100.00
2019-03-23T19:14:54.496Z,100.00
2019-03-23T19:19:59.436Z,99.98
2019-03-23T19:25:14.801Z,99.92
2019-03-23T19:30:12.818Z,99.89
2019-03-23T19:35:17.555Z,99.90
2019-03-23T19:40:22.616Z,99.96
2019-03-23T19:45:27.605Z,100.00
2019-03-23T19:50:32.716Z,100.00
2019-03-23T19:55:37.618Z,100.00
2019-03-23T20:00:42.556Z,100.00
2019-03-23T20:05:47.555Z,100.00
2019-03-23T20:10:53.855Z,100.00
2019-03-23T20:15:58.796Z,100.00
2019-03-23T20:21:03.665Z,100.00
2019-03-23T20:26:08.676Z,100.00
2019-03-23T20:31:15.373Z,100.00
2019-03-23T20:36:20.198Z,100.00
2019-03-23T20:41:24.985Z,100.00
2019-03-23T20:46:29.925Z,100.00
2019-03-23T20:51:35.093Z,100.00
2019-03-23T20:56:40.216Z,100.00
2019-03-23T21:01:45.392Z,100.00
2019-03-23T21:06:50.296Z,99.99
2019-03-23T21:11:57.036Z,99.87
2019-03-23T21:17:03.404Z,99.81
2019-03-23T21:22:08.355Z,99.77
2019-03-23T21:27:13.455Z,99.72
2019-03-23T21:32:18.216Z,99.60
2019-03-23T21:37:23.116Z,99.50
2019-03-23T21:42:27.796Z,99.45
2019-03-23T21:47:32.837Z,99.42
2019-03-23T21:52:37.855Z,99.39
2019-03-23T21:57:43.059Z,99.34
2019-03-23T22:02:48.236Z,99.31
2019-03-23T22:07:53.180Z,99.28
2019-03-23T22:12:59.273Z,99.25
2019-03-23T22:18:04.257Z,99.18
2019-03-23T22:23:11.377Z,99.11
2019-03-23T22:28:16.585Z,99.02
2019-03-23T22:33:21.676Z,99.02
2019-03-23T22:38:26.916Z,98.98
2019-03-23T22:43:31.857Z,98.96
2019-03-23T22:48:38.282Z,98.97
2019-03-23T22:53:42.981Z,99.02
2019-03-23T22:58:47.738Z,98.98
2019-03-23T23:03:52.937Z,98.98
2019-03-23T23:08:57.797Z,99.00
2019-03-23T23:14:02.875Z,99.09
2019-03-23T23:19:10.177Z,99.26
2019-03-23T23:24:15.215Z,99.39
2019-03-23T23:29:20.376Z,99.64
2019-03-23T23:34:25.636Z,99.85
2019-03-23T23:39:30.629Z,100.00
2019-03-23T23:44:36.937Z,100.00
2019-03-23T23:49:42.066Z,100.00
2019-03-23T23:54:46.856Z,100.00
2019-03-23T23:59:51.657Z,100.00
